Time;durP1;ratioP1;P1;durP2;ratioP2;P2;SDS_P1;SDS_P2;PMS_P1;PMS_P2;Temp;Humidity;BMP_temperature;BMP_pressure;BME280_temperature;BME280_humidity;BME280_pressure;Samples;Min_cycle;Max_cycle;Signal;HPM_P1;HPM_P2
2022/05/19 00:00:27;;;;;;;5.20;3.22;;;10.70;93.30;;;;;;4976149;28;20513;-44
2022/05/19 00:02:54;;;;;;;4.05;3.08;;;10.70;93.70;;;;;;4976564;28;20284;-46
2022/05/19 00:05:24;;;;;;;4.40;3.42;;;10.60;94.40;;;;;;4976748;28;20212;-45
2022/05/19 00:07:52;;;;;;;3.28;2.20;;;10.60;94.80;;;;;;4976176;28;20615;-45
2022/05/19 00:10:20;;;;;;;2.58;2.22;;;10.60;95.20;;;;;;4976341;28;20233;-43
2022/05/19 00:12:47;;;;;;;6.15;3.00;;;10.60;95.80;;;;;;4978793;28;20215;-43
2022/05/19 00:15:14;;;;;;;3.35;3.05;;;10.50;96.20;;;;;;4978379;28;20520;-43
2022/05/19 00:17:45;;;;;;;5.25;3.15;;;10.60;96.50;;;;;;4977005;28;20247;-43
2022/05/19 00:20:12;;;;;;;5.72;3.25;;;10.50;96.90;;;;;;4976372;28;20280;-43
2022/05/19 00:22:39;;;;;;;4.82;2.97;;;10.50;97.50;;;;;;4976195;28;20234;-45
2022/05/19 00:25:07;;;;;;;4.20;3.38;;;10.50;97.80;;;;;;4976862;28;20219;-43
2022/05/19 00:27:34;;;;;;;4.55;3.60;;;10.50;98.20;;;;;;4976048;28;20243;-44
2022/05/19 00:30:01;;;;;;;7.55;3.28;;;10.60;98.70;;;;;;4976663;28;20534;-41
2022/05/19 00:32:29;;;;;;;4.88;3.38;;;10.50;99.10;;;;;;4976292;28;20228;-42
2022/05/19 00:34:57;;;;;;;3.83;3.10;;;10.40;99.60;;;;;;4976487;28;20216;-43
2022/05/19 00:37:24;;;;;;;5.68;3.75;;;10.50;99.90;;;;;;4976125;28;20219;-46
2022/05/19 00:39:51;;;;;;;4.88;3.90;;;10.40;99.90;;;;;;4975965;28;20432;-45
2022/05/19 00:45:06;;;;;;;4.53;2.95;;;10.30;99.90;;;;;;4976235;28;20302;-44
2022/05/19 00:47:49;;;;;;;4.80;3.35;;;10.30;99.90;;;;;;4975994;28;20383;-42
2022/05/19 00:50:45;;;;;;;5.63;3.10;;;10.40;99.90;;;;;;4975324;28;20207;-43
2022/05/19 00:53:29;;;;;;;5.47;3.15;;;10.20;99.90;;;;;;4976340;28;20209;-44
2022/05/19 00:56:13;;;;;;;4.10;3.28;;;10.10;99.90;;;;;;4976334;28;20709;-44
2022/05/19 00:58:52;;;;;;;5.20;3.20;;;10.10;99.90;;;;;;4975660;28;20219;-42
2022/05/19 01:01:19;;;;;;;12.05;3.92;;;10.10;99.90;;;;;;4975734;28;20448;-44
2022/05/19 01:03:53;;;;;;;5.20;3.13;;;10.00;99.90;;;;;;4975535;28;20278;-43
2022/05/19 01:06:23;;;;;;;3.65;3.35;;;10.00;99.90;;;;;;4975499;28;20376;-42
2022/05/19 01:09:10;;;;;;;6.57;4.15;;;9.90;99.90;;;;;;4975366;28;20240;-44
2022/05/19 01:11:38;;;;;;;5.93;4.07;;;10.00;99.90;;;;;;4974727;28;20236;-42
2022/05/19 01:14:06;;;;;;;7.03;3.65;;;9.90;99.90;;;;;;4988323;28;20314;-44
2022/05/19 01:16:34;;;;;;;4.13;3.33;;;9.90;99.90;;;;;;4974327;28;20208;-45
2022/05/19 01:19:08;;;;;;;4.80;3.63;;;9.90;99.90;;;;;;4975445;28;20216;-45
2022/05/19 01:21:35;;;;;;;5.85;3.33;;;9.90;99.90;;;;;;4975211;28;20326;-44
2022/05/19 01:24:17;;;;;;;3.50;3.20;;;9.90;99.90;;;;;;4975642;28;20213;-43
2022/05/19 01:26:51;;;;;;;4.53;4.13;;;9.80;99.90;;;;;;4975147;28;20239;-40
2022/05/19 01:29:23;;;;;;;4.97;4.07;;;9.80;99.90;;;;;;4975620;28;20233;-42
2022/05/19 01:31:56;;;;;;;4.32;3.95;;;9.80;99.90;;;;;;4975006;28;20553;-45
2022/05/19 01:34:27;;;;;;;8.15;4.43;;;9.70;99.90;;;;;;4975657;28;20380;-44
2022/05/19 01:36:55;;;;;;;4.35;3.95;;;9.60;99.90;;;;;;4975129;28;20208;-42
2022/05/19 01:39:26;;;;;;;4.70;4.25;;;9.40;99.90;;;;;;4975214;28;20218;-45
2022/05/19 01:41:59;;;;;;;7.80;3.88;;;9.40;99.90;;;;;;4975141;28;20472;-44
2022/05/19 01:44:54;;;;;;;5.55;4.65;;;9.40;99.90;;;;;;4974913;28;20284;-44
2022/05/19 01:47:52;;;;;;;3.47;3.17;;;9.40;99.90;;;;;;4975200;28;20278;-42
2022/05/19 01:50:36;;;;;;;5.13;4.20;;;9.30;99.90;;;;;;4975603;28;20435;-44
2022/05/19 01:53:41;;;;;;;7.30;3.95;;;9.50;99.90;;;;;;4975160;28;20206;-45
2022/05/19 01:56:25;;;;;;;3.78;3.40;;;9.40;99.90;;;;;;4962933;28;20497;-45
2022/05/19 01:59:12;;;;;;;4.50;3.65;;;9.20;99.90;;;;;;4974764;28;20541;-45
2022/05/19 02:01:46;;;;;;;8.45;3.78;;;9.20;99.90;;;;;;4975257;28;20511;-46
2022/05/19 02:04:25;;;;;;;3.28;3.03;;;9.10;99.90;;;;;;4974824;28;20211;-43
2022/05/19 02:07:02;;;;;;;3.85;3.10;;;9.10;99.90;;;;;;4975265;28;20203;-42
2022/05/19 02:09:37;;;;;;;3.63;3.22;;;9.10;99.90;;;;;;4974701;28;20235;-43
2022/05/19 02:12:05;;;;;;;7.90;4.13;;;9.00;99.90;;;;;;4974925;28;20234;-44
2022/05/19 02:14:37;;;;;;;5.28;3.65;;;8.90;99.90;;;;;;4973811;28;20518;-45
2022/05/19 02:17:08;;;;;;;5.90;4.10;;;8.90;99.90;;;;;;4975121;28;20277;-46
2022/05/19 02:19:45;;;;;;;4.00;3.38;;;8.90;99.90;;;;;;4978673;28;20306;-43
2022/05/19 02:22:17;;;;;;;10.23;3.10;;;8.90;99.90;;;;;;4984093;28;20301;-45
2022/05/19 02:24:53;;;;;;;8.63;4.38;;;8.80;99.90;;;;;;4974250;28;20282;-44
2022/05/19 02:27:39;;;;;;;6.57;3.45;;;9.00;99.90;;;;;;4974946;28;20213;-42
2022/05/19 02:30:11;;;;;;;9.20;3.63;;;8.90;99.90;;;;;;4974499;28;20548;-44
2022/05/19 02:32:45;;;;;;;7.22;3.95;;;8.90;99.90;;;;;;4974100;28;20235;-42
2022/05/19 02:35:13;;;;;;;6.07;3.65;;;9.10;99.90;;;;;;4990236;28;20415;-42
2022/05/19 02:37:40;;;;;;;7.75;4.88;;;8.80;99.90;;;;;;4974720;28;20203;-43
2022/05/19 02:40:09;;;;;;;5.43;3.40;;;8.90;99.90;;;;;;4973730;28;20206;-42
2022/05/19 02:42:38;;;;;;;4.78;3.75;;;8.80;99.90;;;;;;4974780;28;20423;-44
2022/05/19 02:45:06;;;;;;;4.75;3.33;;;8.80;99.90;;;;;;4974821;28;20233;-42
2022/05/19 02:47:34;;;;;;;4.03;3.63;;;8.70;99.90;;;;;;4974173;28;20222;-42
2022/05/19 02:50:01;;;;;;;8.85;3.83;;;8.70;99.90;;;;;;4974896;28;20214;-44
2022/05/19 02:52:28;;;;;;;4.15;3.75;;;8.70;99.90;;;;;;4975377;28;20501;-45
2022/05/19 02:54:56;;;;;;;4.57;3.67;;;8.70;99.90;;;;;;4978249;28;20211;-44
2022/05/19 02:57:23;;;;;;;4.07;3.65;;;8.60;99.90;;;;;;4978353;28;20231;-42
2022/05/19 02:59:51;;;;;;;4.55;4.00;;;8.60;99.90;;;;;;4978306;28;20384;-42
2022/05/19 03:02:18;;;;;;;4.97;3.42;;;8.50;99.90;;;;;;4978001;28;20238;-45
2022/05/19 03:04:45;;;;;;;3.85;3.30;;;8.50;99.90;;;;;;4978192;28;20293;-44
2022/05/19 03:07:13;;;;;;;6.40;3.88;;;8.60;99.90;;;;;;4978036;28;20221;-42
2022/05/19 03:09:42;;;;;;;6.60;4.00;;;8.60;99.90;;;;;;4977953;28;20591;-45
2022/05/19 03:12:10;;;;;;;3.53;3.17;;;8.60;99.90;;;;;;4977355;28;20418;-46
2022/05/19 03:14:40;;;;;;;5.85;4.05;;;8.70;99.90;;;;;;4977708;28;20213;-42
2022/05/19 03:17:09;;;;;;;4.47;2.80;;;8.70;99.90;;;;;;4977820;28;20530;-43
2022/05/19 03:19:38;;;;;;;7.28;4.63;;;8.70;99.90;;;;;;4977646;28;20228;-44
2022/05/19 03:22:06;;;;;;;3.63;3.33;;;8.80;99.90;;;;;;4977346;28;20539;-43
2022/05/19 03:24:33;;;;;;;3.85;3.22;;;8.80;99.90;;;;;;4977615;28;20241;-44
2022/05/19 03:27:01;;;;;;;4.93;4.00;;;8.80;99.90;;;;;;4977590;28;20285;-44
2022/05/19 03:29:28;;;;;;;5.38;3.55;;;8.70;99.90;;;;;;4991008;28;20325;-43
2022/05/19 03:31:55;;;;;;;10.25;4.10;;;8.80;99.90;;;;;;4981856;28;20233;-44
2022/05/19 03:34:22;;;;;;;7.80;4.43;;;8.90;99.90;;;;;;4987557;28;20211;-43
2022/05/19 03:36:50;;;;;;;3.85;3.08;;;9.10;99.90;;;;;;4989928;28;20210;-43
2022/05/19 03:39:18;;;;;;;4.63;3.90;;;9.20;99.90;;;;;;4984225;28;20216;-42
2022/05/19 03:41:45;;;;;;;4.97;3.65;;;9.30;99.90;;;;;;4990731;28;20255;-43
2022/05/19 03:44:13;;;;;;;4.13;3.55;;;9.40;99.90;;;;;;4983547;28;20218;-42
2022/05/19 03:46:40;;;;;;;4.47;3.47;;;9.50;99.90;;;;;;4991449;28;20218;-44
2022/05/19 03:49:09;;;;;;;3.97;3.03;;;9.50;99.90;;;;;;4981948;28;20289;-45
2022/05/19 03:51:36;;;;;;;4.30;3.05;;;9.70;99.90;;;;;;4991362;28;20418;-42
2022/05/19 03:54:04;;;;;;;6.90;3.10;;;9.90;99.90;;;;;;4980168;28;20275;-41
2022/05/19 03:56:31;;;;;;;6.50;3.95;;;10.00;99.90;;;;;;4992912;28;20557;-44
2022/05/19 03:58:58;;;;;;;4.20;3.00;;;10.10;99.90;;;;;;4978197;28;20212;-47
2022/05/19 04:01:30;;;;;;;3.78;2.92;;;10.20;99.90;;;;;;4995619;28;20314;-44
2022/05/19 04:04:01;;;;;;;5.20;2.75;;;10.40;99.90;;;;;;4992926;28;20305;-44
2022/05/19 04:06:29;;;;;;;9.48;5.45;;;10.50;99.90;;;;;;4995196;28;20285;-44
2022/05/19 04:08:57;;;;;;;5.65;3.05;;;10.70;99.90;;;;;;4993646;28;20238;-43
2022/05/19 04:11:24;;;;;;;6.70;4.40;;;10.80;99.90;;;;;;5003683;28;20246;-45
2022/05/19 04:13:51;;;;;;;6.25;3.35;;;10.90;99.90;;;;;;5004563;28;20208;-46
2022/05/19 04:16:18;;;;;;;3.85;3.00;;;10.90;99.90;;;;;;4996106;28;20209;-43
2022/05/19 04:18:49;;;;;;;4.45;3.67;;;11.00;99.90;;;;;;4995872;28;20516;-44
2022/05/19 04:21:17;;;;;;;6.85;2.92;;;11.20;99.90;;;;;;4995368;28;20233;-45
2022/05/19 04:23:44;;;;;;;5.85;3.70;;;11.40;99.90;;;;;;4994746;28;20575;-42
2022/05/19 04:26:11;;;;;;;3.55;2.55;;;11.60;99.90;;;;;;4994432;28;20291;-44
2022/05/19 04:28:39;;;;;;;5.05;2.95;;;11.80;99.90;;;;;;4995450;28;20472;-44
2022/05/19 04:31:06;;;;;;;3.70;3.05;;;11.90;99.90;;;;;;4996413;28;20293;-41
2022/05/19 04:33:33;;;;;;;4.65;2.33;;;12.10;99.90;;;;;;4996214;28;20411;-42
2022/05/19 04:36:03;;;;;;;3.60;3.30;;;12.10;99.90;;;;;;4996327;28;20275;-40
2022/05/19 04:38:31;;;;;;;4.28;3.28;;;12.20;99.90;;;;;;4995323;28;20229;-44
2022/05/19 04:41:01;;;;;;;3.60;3.05;;;12.20;99.90;;;;;;4995551;28;20299;-43
2022/05/19 04:43:32;;;;;;;5.63;2.88;;;12.20;99.90;;;;;;4995138;28;20553;-44
2022/05/19 04:45:59;;;;;;;4.07;2.88;;;12.20;99.90;;;;;;5003561;28;20215;-42
2022/05/19 04:48:27;;;;;;;6.22;3.35;;;12.10;99.90;;;;;;4975742;28;20707;-43
2022/05/19 04:50:57;;;;;;;2.95;2.65;;;12.20;99.90;;;;;;4982232;28;20256;-43
2022/05/19 04:53:25;;;;;;;5.22;3.38;;;12.20;99.90;;;;;;4994861;28;20501;-45
2022/05/19 04:55:54;;;;;;;6.07;3.40;;;12.30;99.90;;;;;;4990138;28;20324;-42
2022/05/19 04:58:21;;;;;;;3.20;3.00;;;12.40;99.90;;;;;;4985843;28;20284;-43
2022/05/19 05:00:53;;;;;;;4.65;2.55;;;12.50;99.90;;;;;;4985146;28;20236;-44
2022/05/19 05:03:21;;;;;;;4.85;3.85;;;12.60;99.90;;;;;;4993002;28;20209;-43
2022/05/19 05:05:48;;;;;;;6.57;2.60;;;12.70;99.90;;;;;;4980373;28;20293;-43
2022/05/19 05:08:16;;;;;;;3.67;2.88;;;12.80;99.90;;;;;;4975468;28;20206;-42
2022/05/19 05:10:43;;;;;;;3.15;2.65;;;12.90;99.90;;;;;;4980966;28;20225;-43
2022/05/19 05:13:15;;;;;;;4.32;2.92;;;12.90;99.90;;;;;;4993983;28;20197;-43
2022/05/19 05:15:44;;;;;;;4.95;2.95;;;13.00;99.90;;;;;;4993878;28;20217;-44
2022/05/19 05:18:11;;;;;;;4.65;3.17;;;13.20;99.90;;;;;;4994821;28;20394;-46
2022/05/19 05:20:42;;;;;;;4.43;3.65;;;13.30;99.90;;;;;;4993352;28;20226;-44
2022/05/19 05:23:10;;;;;;;12.70;2.85;;;13.40;99.90;;;;;;4994864;28;20209;-43
2022/05/19 05:25:37;;;;;;;3.13;2.15;;;13.50;99.90;;;;;;4999361;28;20562;-41
2022/05/19 05:28:04;;;;;;;2.67;2.47;;;13.70;99.90;;;;;;5000671;28;20268;-42
2022/05/19 05:30:32;;;;;;;4.00;2.30;;;14.00;99.90;;;;;;4990995;28;20300;-42
2022/05/19 05:33:11;;;;;;;2.63;2.13;;;14.20;99.90;;;;;;4994074;28;20300;-42
2022/05/19 05:35:39;;;;;;;5.97;3.13;;;14.20;99.90;;;;;;4993253;28;20402;-45
2022/05/19 05:38:06;;;;;;;2.78;2.58;;;14.30;99.90;;;;;;4978250;28;20261;-45
2022/05/19 05:40:35;;;;;;;3.47;2.63;;;14.50;99.90;;;;;;4973532;28;20210;-46
2022/05/19 05:43:10;;;;;;;3.90;2.33;;;14.60;99.90;;;;;;4973696;28;20294;-45
2022/05/19 05:45:40;;;;;;;3.75;2.65;;;14.80;99.90;;;;;;4956765;28;20237;-45
2022/05/19 05:48:11;;;;;;;3.30;2.20;;;15.00;99.90;;;;;;4974164;28;20217;-44
2022/05/19 05:50:39;;;;;;;2.83;2.55;;;15.10;99.90;;;;;;4973450;28;20289;-45
2022/05/19 05:53:08;;;;;;;2.55;2.10;;;15.20;99.90;;;;;;4973896;28;20223;-45
2022/05/19 05:55:37;;;;;;;5.80;2.47;;;15.60;99.90;;;;;;4975112;28;20208;-42
2022/05/19 05:58:06;;;;;;;3.50;2.70;;;15.70;99.90;;;;;;4974581;28;20513;-49
2022/05/19 06:00:33;;;;;;;2.10;1.90;;;15.80;99.90;;;;;;4974637;28;20485;-43
2022/05/19 06:03:00;;;;;;;2.40;1.80;;;16.00;99.90;;;;;;4974418;28;20806;-44
2022/05/19 06:05:28;;;;;;;2.97;2.27;;;16.20;99.90;;;;;;4974690;28;20442;-42
2022/05/19 06:07:55;;;;;;;2.87;2.10;;;16.50;99.90;;;;;;4974201;28;20426;-43
2022/05/19 06:10:22;;;;;;;2.80;2.00;;;16.80;99.90;;;;;;4974979;28;20913;-45
2022/05/19 06:12:50;;;;;;;4.87;3.00;;;17.00;99.90;;;;;;4957401;28;20410;-44
2022/05/19 06:15:17;;;;;;;3.23;2.30;;;17.10;99.90;;;;;;4974780;28;20786;-45
2022/05/19 06:17:44;;;;;;;2.20;2.00;;;17.70;99.90;;;;;;4974911;28;20426;-44
2022/05/19 06:20:17;;;;;;;3.53;2.20;;;18.60;99.90;;;;;;4974777;28;20522;-45
2022/05/19 06:22:46;;;;;;;2.30;1.80;;;19.30;99.90;;;;;;4975256;28;20453;-44
2022/05/19 06:25:18;;;;;;;10.73;2.23;;;20.10;98.30;;;;;;4975161;28;20424;-45
2022/05/19 06:27:45;;;;;;;2.90;2.37;;;20.50;96.80;;;;;;4977544;28;20440;-46
2022/05/19 06:30:14;;;;;;;9.13;2.67;;;21.50;95.10;;;;;;4978239;28;20461;-44
2022/05/19 06:32:42;;;;;;;2.30;1.83;;;22.20;92.70;;;;;;4978163;28;20529;-44
2022/05/19 06:35:18;;;;;;;2.17;1.97;;;22.80;90.70;;;;;;4978554;28;20452;-44
2022/05/19 06:37:46;;;;;;;2.60;1.60;;;23.70;87.50;;;;;;4978248;28;20440;-45
2022/05/19 06:40:15;;;;;;;4.17;3.00;;;24.60;84.90;;;;;;4977949;28;20652;-45
2022/05/19 06:42:44;;;;;;;2.47;2.27;;;26.20;78.70;;;;;;4978281;28;20480;-46
2022/05/19 06:45:16;;;;;;;7.70;1.97;;;27.50;70.60;;;;;;4978452;28;20460;-45
2022/05/19 06:47:43;;;;;;;5.90;2.20;;;27.50;67.30;;;;;;4977945;28;20986;-43
2022/05/19 06:50:11;;;;;;;5.53;2.07;;;27.00;67.00;;;;;;4977671;28;20512;-45
2022/05/19 06:52:55;;;;;;;3.13;1.17;;;27.70;65.10;;;;;;4978024;28;20476;-48
2022/05/19 06:55:23;;;;;;;4.53;2.33;;;28.60;61.40;;;;;;4978098;28;20518;-43
2022/05/19 06:57:51;;;;;;;1.67;1.47;;;30.20;58.30;;;;;;4977944;28;20436;-45
2022/05/19 07:00:20;;;;;;;3.67;2.00;;;31.70;55.40;;;;;;4978467;28;20782;-46
2022/05/19 07:02:54;;;;;;;2.57;2.20;;;32.20;52.70;;;;;;4977764;28;20472;-44
2022/05/19 07:05:25;;;;;;;1.57;1.20;;;32.80;51.10;;;;;;4978355;28;20440;-48
2022/05/19 07:07:57;;;;;;;2.87;1.73;;;33.00;49.20;;;;;;4977127;28;20472;-44
2022/05/19 07:10:26;;;;;;;4.90;1.77;;;33.70;49.10;;;;;;4977702;28;20737;-45
2022/05/19 07:12:55;;;;;;;3.40;2.13;;;34.90;47.10;;;;;;4977268;28;20755;-46
2022/05/19 07:15:24;;;;;;;6.00;1.70;;;35.10;46.10;;;;;;4977890;28;20824;-43
2022/05/19 07:17:51;;;;;;;1.60;1.50;;;35.90;44.40;;;;;;4977354;28;20440;-48
2022/05/19 07:23:06;;;;;;;3.27;1.63;;;37.70;42.00;;;;;;4977362;28;20972;-45
2022/05/19 07:25:33;;;;;;;6.73;1.87;;;38.70;40.90;;;;;;4977376;28;20511;-45
2022/05/19 07:28:08;;;;;;;1.90;1.70;;;37.80;41.20;;;;;;4977313;28;20470;-46
2022/05/19 07:30:36;;;;;;;2.33;2.13;;;39.00;39.20;;;;;;4978411;28;20814;-48
2022/05/19 07:33:05;;;;;;;6.87;2.30;;;39.90;38.70;;;;;;4977109;28;20459;-46
2022/05/19 07:35:34;;;;;;;1.60;1.40;;;39.90;38.10;;;;;;4977451;28;20762;-45
2022/05/19 07:38:02;;;;;;;2.00;1.40;;;41.00;37.40;;;;;;4976864;28;20428;-45
2022/05/19 07:40:29;;;;;;;1.90;1.80;;;41.40;35.50;;;;;;4977128;28;20444;-45
2022/05/19 07:45:43;;;;;;;2.47;2.27;;;41.10;34.60;;;;;;4977460;28;20480;-48
2022/05/19 07:48:11;;;;;;;1.80;1.70;;;41.70;34.70;;;;;;4977085;28;20440;-46
2022/05/19 07:50:38;;;;;;;2.43;1.70;;;41.20;34.50;;;;;;4977058;28;20616;-46
2022/05/19 07:53:06;;;;;;;3.83;1.93;;;41.30;35.10;;;;;;4977426;28;20446;-51
2022/05/19 07:55:36;;;;;;;5.07;1.67;;;42.50;34.00;;;;;;4976529;28;20515;-46
2022/05/19 07:58:03;;;;;;;3.60;1.93;;;42.10;33.40;;;;;;4976647;28;20520;-45
2022/05/19 08:00:31;;;;;;;2.10;1.97;;;42.60;33.10;;;;;;4976414;28;20444;-44
2022/05/19 08:02:58;;;;;;;1.53;1.40;;;42.60;33.00;;;;;;4977527;28;20509;-44
2022/05/19 08:05:26;;;;;;;1.63;1.53;;;42.20;32.60;;;;;;4976954;28;20736;-44
2022/05/19 08:07:54;;;;;;;2.07;1.97;;;41.40;32.80;;;;;;4977394;28;20447;-45
2022/05/19 08:10:23;;;;;;;1.30;1.20;;;41.10;33.50;;;;;;4976662;28;20835;-45
2022/05/19 08:15:45;;;;;;;7.10;1.80;;;43.50;32.10;;;;;;4976501;28;20424;-43
2022/05/19 08:18:13;;;;;;;2.40;1.73;;;44.00;30.90;;;;;;4976873;28;20433;-44
2022/05/19 08:21:00;;;;;;;3.80;1.97;;;44.60;30.50;;;;;;4976278;28;20853;-48
2022/05/19 08:23:32;;;;;;;1.70;1.57;;;45.00;30.90;;;;;;4976618;28;20957;-47
2022/05/19 08:26:00;;;;;;;7.43;2.70;;;44.10;31.10;;;;;;4976880;28;20447;-44
2022/05/19 08:28:31;;;;;;;9.90;1.97;;;44.20;30.50;;;;;;4976383;28;20531;-43
2022/05/19 08:31:05;;;;;;;3.03;1.73;;;44.00;30.70;;;;;;4959428;28;20840;-45
2022/05/19 08:33:34;;;;;;;2.67;2.00;;;44.00;30.20;;;;;;4975856;28;20692;-44
2022/05/19 08:36:02;;;;;;;1.53;1.43;;;43.40;30.70;;;;;;4977216;28;20715;-45
2022/05/19 08:38:30;;;;;;;2.37;1.90;;;42.20;31.30;;;;;;4976296;28;20776;-46
2022/05/19 08:41:05;;;;;;;2.43;1.70;;;41.90;31.20;;;;;;4977029;28;20484;-44
2022/05/19 08:43:54;;;;;;;1.67;1.57;;;41.80;31.50;;;;;;4976227;28;20446;-43
2022/05/19 08:46:31;;;;;;;13.90;2.40;;;40.30;32.60;;;;;;4976929;28;20650;-46
2022/05/19 08:49:07;;;;;;;1.70;1.60;;;41.40;32.40;;;;;;4976386;28;20443;-45
2022/05/19 08:51:44;;;;;;;2.40;2.20;;;41.60;31.60;;;;;;4975058;28;20533;-47
2022/05/19 08:54:17;;;;;;;2.93;1.87;;;42.50;31.10;;;;;;4975655;28;20624;-45
2022/05/19 08:57:10;;;;;;;1.77;1.60;;;44.10;30.80;;;;;;4976183;28;20507;-47
2022/05/19 08:59:43;;;;;;;1.53;1.43;;;43.90;29.60;;;;;;4975379;28;20819;-49
2022/05/19 09:02:14;;;;;;;3.37;1.30;;;44.10;29.20;;;;;;4976018;28;20459;-47
2022/05/19 09:04:51;;;;;;;4.60;1.80;;;44.00;29.60;;;;;;4975934;28;20750;-47
2022/05/19 09:07:56;;;;;;;1.93;1.60;;;41.90;30.90;;;;;;4977384;28;20478;-47
2022/05/19 09:10:42;;;;;;;2.00;1.70;;;41.80;30.60;;;;;;4979124;28;20482;-45
2022/05/19 09:13:26;;;;;;;5.93;2.20;;;40.90;31.90;;;;;;4974788;28;20772;-49
2022/05/19 09:16:02;;;;;;;1.53;1.43;;;41.20;31.60;;;;;;4974141;28;20468;-45
2022/05/19 09:18:36;;;;;;;1.80;1.50;;;41.60;30.30;;;;;;4975315;28;20531;-43
2022/05/19 09:21:05;;;;;;;2.60;1.17;;;40.10;31.50;;;;;;4975007;28;20563;-44
2022/05/19 09:23:39;;;;;;;2.43;1.70;;;40.50;31.00;;;;;;4973922;28;20448;-46
2022/05/19 09:26:13;;;;;;;4.57;1.80;;;40.10;32.20;;;;;;4975338;28;20444;-45
2022/05/19 09:28:44;;;;;;;2.87;1.97;;;37.80;33.50;;;;;;4975332;28;20479;-46
2022/05/19 09:31:13;;;;;;;3.07;1.57;;;36.20;36.30;;;;;;4974789;28;20464;-46
2022/05/19 09:33:47;;;;;;;7.90;2.27;;;34.20;37.20;;;;;;4979757;28;20532;-45
2022/05/19 09:36:15;;;;;;;2.23;1.50;;;32.20;39.20;;;;;;4986429;28;20785;-41
2022/05/19 09:38:49;;;;;;;2.37;1.90;;;30.70;40.20;;;;;;4983662;28;20547;-45
2022/05/19 09:41:30;;;;;;;3.60;1.90;;;29.70;41.40;;;;;;4975225;28;20565;-46
2022/05/19 09:43:59;;;;;;;6.60;2.13;;;29.00;42.80;;;;;;4975709;28;20609;-49
2022/05/19 09:46:48;;;;;;;2.20;2.00;;;28.60;42.30;;;;;;4977036;28;20488;-43
2022/05/19 09:49:27;;;;;;;1.87;1.77;;;28.20;43.40;;;;;;4976118;28;20447;-45
2022/05/19 09:52:05;;;;;;;2.03;1.83;;;28.10;42.30;;;;;;4975374;28;20723;-48
2022/05/19 09:54:34;;;;;;;1.60;1.40;;;27.80;42.30;;;;;;4979604;28;20431;-44
2022/05/19 09:57:10;;;;;;;1.43;1.33;;;27.50;42.20;;;;;;4986260;28;20984;-43
2022/05/19 09:59:46;;;;;;;8.23;1.87;;;27.30;43.60;;;;;;4985528;28;20463;-45
2022/05/19 10:02:34;;;;;;;1.93;1.50;;;27.00;43.80;;;;;;4987064;28;20705;-48
2022/05/19 10:05:37;;;;;;;1.63;1.53;;;26.90;44.40;;;;;;4976152;28;20452;-46
2022/05/19 10:08:40;;;;;;;3.50;1.30;;;26.70;43.80;;;;;;4974905;28;20447;-44
2022/05/19 10:11:27;;;;;;;2.17;1.97;;;26.50;45.20;;;;;;4971302;28;20487;-42
2022/05/19 10:14:04;;;;;;;1.37;1.27;;;26.60;45.60;;;;;;4975232;28;20475;-45
2022/05/19 10:16:53;;;;;;;6.03;1.97;;;26.70;42.60;;;;;;4975361;28;20704;-47
2022/05/19 10:19:21;;;;;;;7.00;1.47;;;26.70;43.40;;;;;;4975655;28;20509;-46
2022/05/19 10:22:16;;;;;;;4.73;1.60;;;26.70;42.90;;;;;;4974938;28;20490;-44
2022/05/19 10:24:52;;;;;;;9.10;2.60;;;26.60;43.70;;;;;;4974420;28;20771;-48
2022/05/19 10:33:37;;;;;;;5.83;1.77;;;26.50;44.20;;;;;;4975414;28;20461;-49
2022/05/19 10:36:25;;;;;;;1.93;1.70;;;26.30;45.70;;;;;;4974967;28;20447;-45
2022/05/19 10:39:17;;;;;;;1.27;1.17;;;26.40;45.40;;;;;;4975693;28;20632;-44
2022/05/19 10:42:21;;;;;;;1.63;1.53;;;26.40;45.50;;;;;;4974675;28;20854;-46
2022/05/19 10:45:07;;;;;;;2.93;1.70;;;26.40;46.40;;;;;;4975586;28;20800;-47
2022/05/19 10:48:04;;;;;;;2.30;1.33;;;26.30;44.60;;;;;;4984794;28;20447;-48
2022/05/19 10:50:36;;;;;;;1.97;1.80;;;26.10;45.20;;;;;;4976262;28;20457;-46
2022/05/19 10:53:31;;;;;;;2.73;2.20;;;26.00;45.30;;;;;;4993723;28;20446;-44
2022/05/19 10:56:07;;;;;;;2.00;1.90;;;26.20;45.60;;;;;;4994701;28;20440;-45
2022/05/19 10:59:09;;;;;;;3.53;2.30;;;26.30;44.70;;;;;;4994946;28;20486;-47
2022/05/19 11:01:56;;;;;;;1.63;1.27;;;26.40;44.20;;;;;;4995387;28;20488;-44
2022/05/19 11:04:55;;;;;;;1.77;1.43;;;26.40;44.60;;;;;;4985985;28;20497;-46
2022/05/19 11:07:50;;;;;;;1.30;1.17;;;26.50;44.20;;;;;;4975535;28;20521;-43
2022/05/19 11:10:21;;;;;;;1.93;1.70;;;26.40;45.40;;;;;;4974857;28;20414;-44
2022/05/19 11:13:06;;;;;;;7.07;2.00;;;26.40;45.60;;;;;;4974487;28;20442;-46
2022/05/19 11:15:43;;;;;;;2.10;1.90;;;26.50;44.70;;;;;;4979165;28;20451;-43
2022/05/19 11:18:18;;;;;;;2.60;1.87;;;26.50;44.20;;;;;;4979326;28;20430;-43
2022/05/19 11:21:11;;;;;;;2.10;1.50;;;26.50;43.70;;;;;;4978835;28;20486;-46
2022/05/19 11:23:48;;;;;;;5.40;2.20;;;26.20;43.20;;;;;;4979079;28;20470;-44
2022/05/19 11:26:27;;;;;;;2.83;1.60;;;26.20;44.70;;;;;;4978880;28;20447;-43
2022/05/19 11:29:04;;;;;;;1.77;1.67;;;26.40;44.10;;;;;;4988117;28;20437;-43
2022/05/19 11:31:54;;;;;;;2.77;1.60;;;26.30;43.20;;;;;;4990255;28;20578;-45
2022/05/19 11:34:31;;;;;;;1.87;1.63;;;26.10;43.00;;;;;;4997698;28;20440;-43
2022/05/19 11:37:39;;;;;;;1.30;1.20;;;26.10;44.00;;;;;;4989791;28;20442;-44
2022/05/19 11:40:20;;;;;;;2.00;1.37;;;26.20;43.20;;;;;;4995756;28;20526;-44
2022/05/19 11:43:32;;;;;;;3.80;1.73;;;26.20;42.30;;;;;;4979963;28;20654;-49
2022/05/19 11:46:17;;;;;;;2.17;1.33;;;26.20;41.60;;;;;;4968572;28;20448;-48
2022/05/19 11:55:31;;;;;;;1.80;1.40;;;26.10;41.80;;;;;;4977152;28;20425;-46
2022/05/19 11:58:04;;;;;;;1.67;1.57;;;26.10;42.30;;;;;;4993657;28;20454;-44
2022/05/19 12:00:45;;;;;;;1.83;1.43;;;26.10;42.90;;;;;;4998032;28;20484;-44
2022/05/19 12:03:23;;;;;;;2.10;1.63;;;26.20;43.70;;;;;;4997355;28;20773;-43
2022/05/19 12:06:17;;;;;;;2.47;1.80;;;26.10;44.90;;;;;;4997871;28;20433;-43
2022/05/19 12:08:53;;;;;;;2.43;2.23;;;26.00;45.00;;;;;;4997355;28;20438;-45
2022/05/19 12:11:35;;;;;;;1.77;1.67;;;26.20;45.20;;;;;;4995685;28;20474;-45
2022/05/19 12:14:15;;;;;;;2.50;2.13;;;26.50;45.30;;;;;;4977377;28;20450;-44
2022/05/19 12:17:01;;;;;;;1.57;1.47;;;26.20;43.20;;;;;;4977889;28;20472;-49
2022/05/19 12:19:38;;;;;;;3.60;1.53;;;26.20;44.50;;;;;;4988692;28;20459;-46
2022/05/19 12:22:24;;;;;;;2.57;2.27;;;26.40;44.00;;;;;;4997223;28;20645;-44
2022/05/19 12:24:55;;;;;;;2.47;1.60;;;26.60;43.20;;;;;;4996587;28;20689;-45
2022/05/19 12:27:29;;;;;;;1.57;1.40;;;26.60;43.30;;;;;;4997097;28;20677;-43
2022/05/19 12:31:56;;;;;;;2.30;1.50;;;26.60;42.90;;;;;;4997068;28;20776;-44
2022/05/19 12:33:13;;;;;;;2.10;1.90;;;26.70;43.00;;;;;;4994072;28;20445;-45
2022/05/19 12:35:47;;;;;;;6.10;1.63;;;26.60;44.00;;;;;;4979793;28;20462;-44
2022/05/19 12:38:45;;;;;;;1.83;1.60;;;26.70;43.20;;;;;;4980937;28;20453;-46
2022/05/19 12:41:32;;;;;;;3.50;2.10;;;26.60;44.20;;;;;;4975592;28;20563;-47
2022/05/19 12:44:41;;;;;;;2.30;1.60;;;26.70;45.00;;;;;;4979214;28;20795;-48
2022/05/19 12:47:10;;;;;;;1.60;1.50;;;26.80;44.50;;;;;;4979850;28;20612;-47
2022/05/19 12:49:39;;;;;;;2.10;1.53;;;26.80;44.40;;;;;;4978692;28;20785;-45
2022/05/19 12:52:17;;;;;;;2.30;1.63;;;26.70;45.30;;;;;;4979592;28;20485;-41
2022/05/19 12:55:11;;;;;;;5.13;1.60;;;26.70;45.60;;;;;;4980269;28;20813;-44
2022/05/19 12:57:38;;;;;;;2.40;2.20;;;26.80;45.70;;;;;;4979135;28;20446;-46
2022/05/19 13:00:18;;;;;;;1.30;1.20;;;26.80;45.40;;;;;;4980140;28;20826;-50
2022/05/19 13:03:06;;;;;;;8.80;1.50;;;26.90;45.10;;;;;;4993634;28;20452;-51
2022/05/19 13:05:50;;;;;;;8.20;2.73;;;26.90;44.80;;;;;;4977187;28;20618;-42
2022/05/19 13:08:49;;;;;;;1.53;1.43;;;27.00;45.60;;;;;;4977121;28;20507;-46
2022/05/19 13:11:31;;;;;;;6.20;3.03;;;26.80;46.80;;;;;;4976681;28;20715;-46
2022/05/19 13:14:06;;;;;;;1.40;1.30;;;26.90;46.70;;;;;;4977092;28;20441;-44
2022/05/19 13:16:40;;;;;;;11.13;1.90;;;26.90;44.90;;;;;;4984641;28;20499;-42
2022/05/19 13:19:16;;;;;;;2.80;1.90;;;26.80;43.40;;;;;;4995960;28;20489;-46
2022/05/19 13:21:57;;;;;;;4.63;2.17;;;26.70;42.40;;;;;;4995794;28;20730;-45
2022/05/19 13:24:28;;;;;;;1.60;1.50;;;26.60;42.10;;;;;;4994903;28;20441;-45
2022/05/19 13:32:39;;;;;;;2.03;1.83;;;27.00;42.70;;;;;;5010906;28;20906;-43
2022/05/19 13:35:19;;;;;;;2.83;1.00;;;27.10;42.50;;;;;;4977251;28;20525;-46
2022/05/19 13:37:48;;;;;;;4.93;1.80;;;27.20;40.50;;;;;;4978617;28;20725;-46
2022/05/19 13:40:29;;;;;;;2.13;1.90;;;27.10;41.00;;;;;;5011025;28;20854;-46
2022/05/19 13:43:00;;;;;;;1.60;1.50;;;27.00;40.60;;;;;;4995583;28;20434;-46
2022/05/19 13:45:54;;;;;;;6.60;1.90;;;26.90;41.50;;;;;;4978397;28;20439;-46
2022/05/19 13:48:37;;;;;;;2.70;1.67;;;26.90;43.20;;;;;;5004620;28;20444;-49
2022/05/19 13:51:23;;;;;;;6.33;1.60;;;26.90;43.00;;;;;;5014492;28;20829;-44
2022/05/19 13:53:58;;;;;;;1.93;1.70;;;26.90;43.20;;;;;;4995729;28;20730;-47